Time;durP1;ratioP1;P1;durP2;ratioP2;P2;SDS_P1;SDS_P2;PMS_P1;PMS_P2;Temp;Humidity;BMP_temperature;BMP_pressure;BME280_temperature;BME280_humidity;BME280_pressure;Samples;Min_cycle;Max_cycle;Signal;HPM_P1;HPM_P2
2022/09/24 00:00:27;;;;;;;34.63;26.08;;;;;;;;;;5045003;28;20050;-61
2022/09/24 00:02:53;;;;;;;29.10;22.13;;;;;;;;;;5043546;28;20058;-62
2022/09/24 00:05:20;;;;;;;33.28;25.35;;;;;;;;;;5052213;28;20054;-61
2022/09/24 00:07:46;;;;;;;33.42;24.73;;;;;;;;;;5051036;28;20104;-62
2022/09/24 00:10:12;;;;;;;35.03;25.25;;;;;;;;;;5052686;28;20119;-61
2022/09/24 00:12:39;;;;;;;30.75;23.75;;;;;;;;;;5051098;28;20054;-60
2022/09/24 00:15:06;;;;;;;33.17;24.85;;;;;;;;;;5047155;28;20107;-61
2022/09/24 00:17:32;;;;;;;29.05;22.10;;;;;;;;;;5052679;28;20108;-62
2022/09/24 00:19:58;;;;;;;26.60;20.67;;;;;;;;;;5051808;28;20112;-61
2022/09/24 00:22:24;;;;;;;26.55;20.27;;;;;;;;;;5053228;28;20060;-61
2022/09/24 00:27:35;;;;;;;25.90;19.27;;;;;;;;;;5051576;28;20058;-60
2022/09/24 00:30:02;;;;;;;26.58;19.30;;;;;;;;;;5046411;28;20099;-61
2022/09/24 00:32:28;;;;;;;27.08;20.45;;;;;;;;;;5045635;28;20049;-60
2022/09/24 00:34:54;;;;;;;25.27;18.60;;;;;;;;;;5050390;28;20061;-61
2022/09/24 00:37:21;;;;;;;23.20;18.67;;;;;;;;;;5052917;28;20103;-60
2022/09/24 00:39:47;;;;;;;24.75;18.52;;;;;;;;;;5054648;28;20076;-60
2022/09/24 00:42:13;;;;;;;25.45;18.33;;;;;;;;;;5048594;28;20057;-61
2022/09/24 00:44:39;;;;;;;27.25;19.38;;;;;;;;;;5054874;28;20061;-61
2022/09/24 00:47:26;;;;;;;27.27;18.45;;;;;;;;;;5050409;28;20579;-61
2022/09/24 00:49:56;;;;;;;20.90;15.75;;;;;;;;;;5053934;28;20057;-61
2022/09/24 00:52:23;;;;;;;22.77;17.02;;;;;;;;;;5050259;28;20053;-61
2022/09/24 00:54:49;;;;;;;23.00;16.73;;;;;;;;;;5051923;28;20127;-61
2022/09/24 00:57:15;;;;;;;21.75;16.98;;;;;;;;;;5053021;28;20057;-61
2022/09/24 00:59:42;;;;;;;23.25;16.77;;;;;;;;;;5054112;28;20057;-61
2022/09/24 01:02:08;;;;;;;19.73;14.93;;;;;;;;;;5050941;28;20416;-61
2022/09/24 01:04:34;;;;;;;19.92;14.65;;;;;;;;;;5053780;28;20077;-60
2022/09/24 01:07:01;;;;;;;18.60;14.95;;;;;;;;;;5053459;28;20147;-60
2022/09/24 01:09:27;;;;;;;20.05;15.23;;;;;;;;;;5053508;28;20053;-60
2022/09/24 01:11:57;;;;;;;22.02;16.25;;;;;;;;;;5050540;28;20053;-60
2022/09/24 01:14:35;;;;;;;20.73;15.80;;;;;;;;;;5054249;28;20493;-60
2022/09/24 01:17:16;;;;;;;20.42;15.38;;;;;;;;;;5053798;28;20112;-60
2022/09/24 01:20:12;;;;;;;21.75;15.32;;;;;;;;;;5050418;28;20050;-60
2022/09/24 01:22:57;;;;;;;22.83;15.68;;;;;;;;;;5045962;28;20106;-60
2022/09/24 01:25:42;;;;;;;20.45;14.85;;;;;;;;;;5051123;28;20475;-60
2022/09/24 01:28:26;;;;;;;18.88;15.52;;;;;;;;;;5051741;28;20433;-61
2022/09/24 01:30:56;;;;;;;21.17;15.88;;;;;;;;;;5045526;28;20497;-60
2022/09/24 01:33:24;;;;;;;20.50;15.43;;;;;;;;;;5049488;28;20057;-60
2022/09/24 01:35:52;;;;;;;19.30;14.27;;;;;;;;;;5051398;28;20053;-59
2022/09/24 01:38:20;;;;;;;22.77;17.75;;;;;;;;;;5050546;28;20505;-60
2022/09/24 01:40:48;;;;;;;23.08;17.30;;;;;;;;;;5052582;28;20065;-61
2022/09/24 01:43:17;;;;;;;21.23;16.02;;;;;;;;;;5043425;28;20061;-61
2022/09/24 01:45:43;;;;;;;22.27;16.25;;;;;;;;;;5053096;28;20057;-60
2022/09/24 01:48:10;;;;;;;20.95;16.17;;;;;;;;;;5050469;28;20050;-60
2022/09/24 01:50:56;;;;;;;22.35;16.45;;;;;;;;;;5051478;28;20057;-60
2022/09/24 01:53:28;;;;;;;24.63;17.33;;;;;;;;;;5051132;28;20104;-61
2022/09/24 01:56:00;;;;;;;26.52;17.50;;;;;;;;;;5047825;28;20398;-60
2022/09/24 01:58:35;;;;;;;25.63;17.88;;;;;;;;;;5048932;28;20057;-61
2022/09/24 02:01:01;;;;;;;;;;;;;;;;;;5048678;28;20045;-61
2022/09/24 02:03:30;;;;;;;26.75;18.20;;;;;;;;;;5052661;28;45225;-60
2022/09/24 02:06:02;;;;;;;22.90;17.73;;;;;;;;;;5051114;28;20053;-60
2022/09/24 02:08:32;;;;;;;25.77;17.92;;;;;;;;;;5053369;28;20099;-61
2022/09/24 02:11:04;;;;;;;27.00;18.63;;;;;;;;;;5045811;22;20054;-72
2022/09/24 02:13:38;;;;;;;26.77;18.88;;;;;;;;;;5012400;28;20059;-73
2022/09/24 02:16:07;;;;;;;25.25;17.85;;;;;;;;;;5011960;28;20474;-73
2022/09/24 02:18:35;;;;;;;25.83;18.48;;;;;;;;;;5012820;28;20129;-72
2022/09/24 02:21:05;;;;;;;25.48;17.80;;;;;;;;;;5012274;28;20128;-73
2022/09/24 02:23:33;;;;;;;31.08;19.58;;;;;;;;;;5012818;28;20461;-73
2022/09/24 02:26:01;;;;;;;26.73;17.38;;;;;;;;;;5011632;28;20054;-73
2022/09/24 02:28:27;;;;;;;29.63;19.10;;;;;;;;;;5000811;28;20054;-73
2022/09/24 02:30:57;;;;;;;29.77;19.52;;;;;;;;;;5010039;28;20062;-72
2022/09/24 02:36:10;;;;;;;26.70;19.13;;;;;;;;;;5011856;28;20050;-72
2022/09/24 02:38:37;;;;;;;29.13;20.48;;;;;;;;;;5009639;28;20062;-72
2022/09/24 02:41:07;;;;;;;28.17;18.27;;;;;;;;;;5011265;28;20101;-72
2022/09/24 02:43:35;;;;;;;31.33;20.65;;;;;;;;;;5003821;28;20059;-71
2022/09/24 02:46:01;;;;;;;28.20;19.30;;;;;;;;;;5002347;28;20514;-72
2022/09/24 02:48:28;;;;;;;28.70;19.70;;;;;;;;;;5011921;28;20504;-72
2022/09/24 02:50:54;;;;;;;29.58;19.75;;;;;;;;;;5012129;28;20487;-71
2022/09/24 02:53:20;;;;;;;31.10;20.05;;;;;;;;;;5009982;28;20493;-72
2022/09/24 02:55:47;;;;;;;32.10;20.77;;;;;;;;;;4997586;28;20050;-72
2022/09/24 02:58:13;;;;;;;32.15;19.92;;;;;;;;;;5010604;28;20061;-72
2022/09/24 03:00:39;;;;;;;28.95;20.35;;;;;;;;;;5008875;28;20490;-72
2022/09/24 03:03:05;;;;;;;30.65;20.08;;;;;;;;;;5011166;28;20109;-71
2022/09/24 03:05:32;;;;;;;31.10;21.55;;;;;;;;;;5011436;28;20053;-72
2022/09/24 03:07:58;;;;;;;34.20;22.02;;;;;;;;;;5011666;28;20487;-71
2022/09/24 03:10:25;;;;;;;32.10;20.60;;;;;;;;;;5007810;28;20066;-71
2022/09/24 03:12:51;;;;;;;31.70;20.33;;;;;;;;;;5002176;28;20054;-72
2022/09/24 03:15:17;;;;;;;30.95;20.92;;;;;;;;;;5010038;28;20054;-71
2022/09/24 03:17:44;;;;;;;35.63;22.02;;;;;;;;;;5011733;28;20058;-71
2022/09/24 03:20:10;;;;;;;31.30;20.52;;;;;;;;;;5011019;28;20113;-71
2022/09/24 03:22:36;;;;;;;33.90;21.63;;;;;;;;;;5011596;28;20051;-71
2022/09/24 03:25:03;;;;;;;32.25;21.55;;;;;;;;;;5009206;28;20113;-71
2022/09/24 03:27:29;;;;;;;32.53;20.08;;;;;;;;;;5008482;28;20070;-71
2022/09/24 03:32:40;;;;;;;35.08;21.73;;;;;;;;;;5010422;28;20062;-72
2022/09/24 03:35:07;;;;;;;30.90;21.55;;;;;;;;;;5010536;28;20573;-71
2022/09/24 03:37:35;;;;;;;32.42;20.25;;;;;;;;;;5008008;28;20058;-71
2022/09/24 03:40:02;;;;;;;33.50;20.65;;;;;;;;;;5008834;28;20061;-71
2022/09/24 03:42:28;;;;;;;33.55;20.95;;;;;;;;;;5010508;28;20058;-70
2022/09/24 03:44:54;;;;;;;31.80;21.67;;;;;;;;;;5012116;28;20062;-70
2022/09/24 03:47:21;;;;;;;35.17;22.52;;;;;;;;;;5010633;28;20061;-71
2022/09/24 03:49:47;;;;;;;34.85;21.38;;;;;;;;;;5011133;28;20112;-70
2022/09/24 03:52:13;;;;;;;32.90;20.63;;;;;;;;;;5010803;28;20495;-71
2022/09/24 03:54:39;;;;;;;35.10;21.88;;;;;;;;;;5009571;28;20055;-71
2022/09/24 03:57:06;;;;;;;33.83;22.42;;;;;;;;;;5009221;28;20089;-71
2022/09/24 03:59:32;;;;;;;34.20;22.02;;;;;;;;;;5005620;28;20110;-72
2022/09/24 04:01:58;;;;;;;36.28;21.88;;;;;;;;;;5003783;28;20054;-71
2022/09/24 04:04:24;;;;;;;33.45;22.17;;;;;;;;;;5010538;28;20059;-71
2022/09/24 04:06:51;;;;;;;34.00;22.88;;;;;;;;;;5010596;28;20137;-71
2022/09/24 04:09:17;;;;;;;34.47;23.55;;;;;;;;;;4994390;28;20062;-70
2022/09/24 04:11:44;;;;;;;35.75;22.30;;;;;;;;;;5010467;28;20058;-71
2022/09/24 04:14:10;;;;;;;33.35;21.35;;;;;;;;;;5008032;28;20050;-71
2022/09/24 04:16:36;;;;;;;34.97;21.73;;;;;;;;;;5005710;28;20508;-70
2022/09/24 04:19:03;;;;;;;37.13;23.65;;;;;;;;;;4998570;28;20124;-71
2022/09/24 04:21:29;;;;;;;36.08;21.77;;;;;;;;;;5010258;28;20316;-71
2022/09/24 04:23:55;;;;;;;36.72;23.00;;;;;;;;;;5004184;28;20054;-71
2022/09/24 04:26:21;;;;;;;36.88;22.58;;;;;;;;;;5010219;28;20113;-71
2022/09/24 04:28:49;;;;;;;36.83;21.77;;;;;;;;;;5010355;28;20066;-70
2022/09/24 04:31:15;;;;;;;34.20;21.80;;;;;;;;;;5005020;28;20058;-71
2022/09/24 04:33:41;;;;;;;34.25;21.75;;;;;;;;;;5008955;28;20082;-71
2022/09/24 04:36:08;;;;;;;36.33;22.17;;;;;;;;;;5006893;28;20066;-70
2022/09/24 04:38:34;;;;;;;32.45;22.38;;;;;;;;;;5006278;28;20114;-71
2022/09/24 04:41:08;;;;;;;36.25;22.38;;;;;;;;;;5004712;28;20062;-71
2022/09/24 04:43:35;;;;;;;36.25;23.17;;;;;;;;;;5005917;28;20054;-71
2022/09/24 04:46:02;;;;;;;35.22;21.77;;;;;;;;;;5009056;28;20065;-72
2022/09/24 04:48:29;;;;;;;35.63;23.10;;;;;;;;;;5010556;28;20126;-72
2022/09/24 04:50:55;;;;;;;33.90;22.20;;;;;;;;;;5010726;28;20058;-71
2022/09/24 04:53:22;;;;;;;37.78;23.50;;;;;;;;;;5011228;28;20156;-71
2022/09/24 04:55:49;;;;;;;39.35;23.55;;;;;;;;;;4997508;28;20142;-71
2022/09/24 04:58:15;;;;;;;38.30;23.70;;;;;;;;;;5008998;28;20058;-71
2022/09/24 05:00:42;;;;;;;38.88;22.05;;;;;;;;;;5012479;28;20109;-72
2022/09/24 05:03:08;;;;;;;31.05;20.83;;;;;;;;;;5011966;28;20058;-72
2022/09/24 05:05:35;;;;;;;33.00;21.48;;;;;;;;;;5010790;28;20090;-72
2022/09/24 05:08:01;;;;;;;35.70;22.58;;;;;;;;;;5012604;28;20109;-72
2022/09/24 05:10:30;;;;;;;32.58;21.83;;;;;;;;;;5013216;28;20058;-71
2022/09/24 05:12:56;;;;;;;33.47;21.65;;;;;;;;;;5014835;28;20105;-71
2022/09/24 05:15:22;;;;;;;37.05;21.77;;;;;;;;;;5012836;28;20058;-71
2022/09/24 05:17:49;;;;;;;34.58;22.95;;;;;;;;;;5012789;28;20525;-71
2022/09/24 05:20:18;;;;;;;34.95;21.15;;;;;;;;;;5014031;28;20058;-72
2022/09/24 05:22:45;;;;;;;35.85;22.80;;;;;;;;;;5012178;28;20061;-72
2022/09/24 05:25:12;;;;;;;37.85;21.83;;;;;;;;;;5011986;28;20520;-72
2022/09/24 05:27:45;;;;;;;37.65;22.35;;;;;;;;;;5012350;28;20470;-72
2022/09/24 05:30:11;;;;;;;38.88;21.77;;;;;;;;;;5012440;28;20491;-73
2022/09/24 05:32:37;;;;;;;34.90;21.50;;;;;;;;;;5009143;28;20058;-73
2022/09/24 05:35:07;;;;;;;34.58;23.33;;;;;;;;;;4994356;28;20964;-73
2022/09/24 05:37:34;;;;;;;36.88;22.45;;;;;;;;;;5009335;28;20490;-72
2022/09/24 05:40:46;;;;;;;40.65;22.58;;;;;;;;;;5012170;28;20054;-72
2022/09/24 05:42:47;;;;;;;36.13;22.02;;;;;;;;;;5008873;28;20077;-71
2022/09/24 05:45:16;;;;;;;35.53;23.13;;;;;;;;;;5013255;28;20470;-71
2022/09/24 05:47:44;;;;;;;33.03;21.17;;;;;;;;;;5012278;28;20050;-71
2022/09/24 05:50:11;;;;;;;33.60;21.50;;;;;;;;;;5013496;28;20051;-71
2022/09/24 05:52:37;;;;;;;39.33;22.75;;;;;;;;;;5011086;28;20810;-71
2022/09/24 05:55:04;;;;;;;36.42;22.58;;;;;;;;;;5011540;28;20123;-70
2022/09/24 05:57:32;;;;;;;35.45;22.98;;;;;;;;;;5004818;28;20051;-70
2022/09/24 05:59:58;;;;;;;32.92;21.60;;;;;;;;;;5006852;28;20054;-70
2022/09/24 06:02:24;;;;;;;36.58;21.58;;;;;;;;;;5013483;28;20058;-70
2022/09/24 06:04:50;;;;;;;33.78;23.35;;;;;;;;;;5013738;28;20065;-70
2022/09/24 06:07:17;;;;;;;37.05;22.77;;;;;;;;;;5012620;28;20604;-70
2022/09/24 06:09:43;;;;;;;36.78;22.90;;;;;;;;;;5012656;28;20117;-70
2022/09/24 06:12:09;;;;;;;38.30;23.48;;;;;;;;;;5012489;28;20054;-71
2022/09/24 06:14:36;;;;;;;33.97;22.42;;;;;;;;;;5013291;28;20115;-71
2022/09/24 06:17:02;;;;;;;35.70;22.20;;;;;;;;;;5013238;28;20054;-71
2022/09/24 06:19:32;;;;;;;35.13;22.33;;;;;;;;;;5012560;28;20061;-71
2022/09/24 06:21:58;;;;;;;35.25;22.42;;;;;;;;;;5012439;28;20588;-71
2022/09/24 06:24:25;;;;;;;34.30;22.05;;;;;;;;;;5011308;28;20117;-71
2022/09/24 06:26:51;;;;;;;37.20;22.73;;;;;;;;;;5011066;28;20058;-71
2022/09/24 06:29:17;;;;;;;34.97;22.02;;;;;;;;;;5011528;28;20062;-71
2022/09/24 06:31:44;;;;;;;35.13;21.35;;;;;;;;;;5011612;28;20486;-71
2022/09/24 06:34:11;;;;;;;32.30;22.45;;;;;;;;;;4995959;28;20051;-71
2022/09/24 06:36:38;;;;;;;31.08;20.15;;;;;;;;;;5000644;28;20058;-71
2022/09/24 06:39:04;;;;;;;32.97;21.67;;;;;;;;;;5012058;28;20054;-71
2022/09/24 06:41:30;;;;;;;33.33;20.50;;;;;;;;;;5012381;28;20058;-71
2022/09/24 06:43:57;;;;;;;34.75;21.25;;;;;;;;;;5012265;28;20092;-71
2022/09/24 06:46:24;;;;;;;31.58;21.23;;;;;;;;;;5010861;28;20056;-71
2022/09/24 06:48:53;;;;;;;38.67;22.60;;;;;;;;;;5012774;28;20066;-70
2022/09/24 06:51:19;;;;;;;33.92;21.42;;;;;;;;;;5011505;28;20054;-70
2022/09/24 06:53:49;;;;;;;31.52;20.83;;;;;;;;;;5010581;28;20051;-71
2022/09/24 06:56:16;;;;;;;37.28;21.95;;;;;;;;;;5011735;28;20054;-70
2022/09/24 06:58:42;;;;;;;34.95;20.10;;;;;;;;;;4996459;28;20058;-70
2022/09/24 07:01:08;;;;;;;36.10;21.90;;;;;;;;;;5012377;28;20066;-70
2022/09/24 07:03:35;;;;;;;34.08;21.45;;;;;;;;;;5010014;28;20064;-71
2022/09/24 07:06:02;;;;;;;30.83;20.05;;;;;;;;;;5011988;28;20054;-70
2022/09/24 07:08:29;;;;;;;30.05;19.88;;;;;;;;;;5008986;28;20089;-70
2022/09/24 07:10:56;;;;;;;31.67;20.75;;;;;;;;;;5011525;28;20061;-71
2022/09/24 07:13:22;;;;;;;29.17;18.98;;;;;;;;;;5008037;28;20482;-71
2022/09/24 07:15:49;;;;;;;27.58;18.65;;;;;;;;;;4992578;28;20055;-71
2022/09/24 07:18:16;;;;;;;29.70;18.65;;;;;;;;;;5011714;28;20206;-71
2022/09/24 07:20:43;;;;;;;26.60;18.15;;;;;;;;;;5011904;28;20073;-70
2022/09/24 07:23:10;;;;;;;30.52;19.52;;;;;;;;;;5011720;28;20981;-71
2022/09/24 07:25:36;;;;;;;31.67;21.08;;;;;;;;;;5007903;28;20050;-71
2022/09/24 07:28:07;;;;;;;30.95;19.45;;;;;;;;;;5003902;28;20062;-70
2022/09/24 07:30:34;;;;;;;30.88;19.33;;;;;;;;;;5011255;28;20050;-70
2022/09/24 07:33:00;;;;;;;28.08;19.00;;;;;;;;;;5011323;28;20054;-70
2022/09/24 07:35:27;;;;;;;27.50;18.83;;;;;;;;;;5012130;28;20069;-71
2022/09/24 07:38:04;;;;;;;26.90;17.80;;;;;;;;;;5011853;28;20061;-70
2022/09/24 07:40:30;;;;;;;24.77;17.23;;;;;;;;;;5011301;28;20057;-70
2022/09/24 07:42:57;;;;;;;25.27;16.73;;;;;;;;;;5010879;28;20058;-70
2022/09/24 07:45:29;;;;;;;25.73;16.77;;;;;;;;;;5011740;28;20050;-70
2022/09/24 07:48:00;;;;;;;30.05;17.23;;;;;;;;;;5012003;28;20054;-70
2022/09/24 07:50:27;;;;;;;21.77;15.07;;;;;;;;;;5011748;28;20050;-70
2022/09/24 07:52:54;;;;;;;24.77;16.52;;;;;;;;;;5011606;28;20054;-70
2022/09/24 07:55:20;;;;;;;21.63;15.38;;;;;;;;;;5010165;28;20062;-69
2022/09/24 07:57:48;;;;;;;24.27;16.55;;;;;;;;;;5011054;28;20055;-70
2022/09/24 08:00:16;;;;;;;24.10;16.08;;;;;;;;;;5008012;28;20058;-70
2022/09/24 08:02:43;;;;;;;22.02;14.63;;;;;;;;;;4991765;28;20502;-70
2022/09/24 08:05:10;;;;;;;25.80;15.23;;;;;;;;;;4992513;28;20054;-71
2022/09/24 08:07:37;;;;;;;23.77;16.45;;;;;;;;;;4991975;28;20046;-71
2022/09/24 08:10:03;;;;;;;23.20;16.00;;;;;;;;;;5005253;28;20058;-71
2022/09/24 08:12:30;;;;;;;24.85;16.42;;;;;;;;;;5009864;28;20069;-71
2022/09/24 08:14:56;;;;;;;21.63;14.88;;;;;;;;;;5009022;28;20570;-71
2022/09/24 08:17:22;;;;;;;22.35;15.77;;;;;;;;;;5010850;28;20066;-71
2022/09/24 08:19:50;;;;;;;24.20;17.08;;;;;;;;;;5011215;28;20065;-72
2022/09/24 08:22:17;;;;;;;25.42;17.15;;;;;;;;;;5011284;28;20060;-71
2022/09/24 08:24:44;;;;;;;26.55;17.52;;;;;;;;;;5009772;28;20050;-72
2022/09/24 08:27:10;;;;;;;26.00;17.10;;;;;;;;;;5013754;28;20049;-72
2022/09/24 08:29:42;;;;;;;24.40;16.85;;;;;;;;;;5014645;28;20065;-72
2022/09/24 08:32:08;;;;;;;23.20;15.43;;;;;;;;;;5012267;28;20058;-72
2022/09/24 08:34:37;;;;;;;23.60;15.68;;;;;;;;;;5013751;28;20062;-71
2022/09/24 08:37:04;;;;;;;24.02;15.80;;;;;;;;;;5013600;28;20085;-72
2022/09/24 08:39:32;;;;;;;25.45;16.15;;;;;;;;;;5013219;28;20511;-71
2022/09/24 08:42:00;;;;;;;24.25;15.88;;;;;;;;;;5011857;28;20065;-72
2022/09/24 08:47:41;;;;;;;28.15;18.20;;;;;;;;;;5013652;28;20061;-71
2022/09/24 08:50:16;;;;;;;27.13;17.40;;;;;;;;;;5000443;28;20081;-71
2022/09/24 08:52:42;;;;;;;24.55;16.00;;;;;;;;;;4994275;28;20138;-72
2022/09/24 08:55:24;;;;;;;27.55;16.60;;;;;;;;;;5007993;28;20050;-72
2022/09/24 08:57:57;;;;;;;25.85;16.33;;;;;;;;;;5013039;28;20065;-72
2022/09/24 09:00:28;;;;;;;28.63;17.67;;;;;;;;;;5013497;28;20054;-72
2022/09/24 09:03:00;;;;;;;28.75;17.10;;;;;;;;;;5014214;28;20060;-73
2022/09/24 09:05:38;;;;;;;26.30;16.42;;;;;;;;;;5027523;28;20058;-73
2022/09/24 09:08:16;;;;;;;28.63;17.65;;;;;;;;;;5009666;28;20051;-73
2022/09/24 09:11:03;;;;;;;28.73;16.48;;;;;;;;;;5015986;28;20058;-73
2022/09/24 09:13:33;;;;;;;26.08;17.33;;;;;;;;;;5013876;28;20058;-73
2022/09/24 09:16:03;;;;;;;22.63;13.95;;;;;;;;;;5001656;28;20065;-72
2022/09/24 09:18:36;;;;;;;28.20;15.45;;;;;;;;;;5013147;28;20477;-73
2022/09/24 09:21:07;;;;;;;23.50;15.13;;;;;;;;;;5013931;28;20051;-72
2022/09/24 09:23:40;;;;;;;25.55;14.60;;;;;;;;;;5012336;28;20417;-71
2022/09/24 09:26:09;;;;;;;21.90;14.32;;;;;;;;;;5013836;28;20158;-71
2022/09/24 09:28:36;;;;;;;25.17;14.50;;;;;;;;;;5013632;28;20050;-72
2022/09/24 09:31:07;;;;;;;22.05;13.85;;;;;;;;;;5013194;28;20491;-72
2022/09/24 09:33:53;;;;;;;20.50;14.20;;;;;;;;;;5013859;28;20058;-72
2022/09/24 09:36:26;;;;;;;21.73;13.52;;;;;;;;;;5012945;28;20383;-72
2022/09/24 09:39:13;;;;;;;22.90;13.73;;;;;;;;;;5012961;28;20495;-71
2022/09/24 09:41:55;;;;;;;21.60;12.45;;;;;;;;;;5020808;28;20081;-72
2022/09/24 09:44:27;;;;;;;19.52;12.35;;;;;;;;;;5012461;28;20490;-72
2022/09/24 09:47:00;;;;;;;21.63;13.90;;;;;;;;;;5012855;28;20072;-72
2022/09/24 09:49:31;;;;;;;19.42;12.65;;;;;;;;;;5013519;28;20146;-73
2022/09/24 09:52:01;;;;;;;20.20;12.75;;;;;;;;;;5013643;28;20050;-72
2022/09/24 09:54:37;;;;;;;21.00;14.10;;;;;;;;;;5011306;28;20054;-72
2022/09/24 09:57:05;;;;;;;25.17;15.73;;;;;;;;;;5013549;28;20050;-72
2022/09/24 09:59:34;;;;;;;21.88;12.73;;;;;;;;;;4998749;28;20058;-72
2022/09/24 10:02:00;;;;;;;18.83;11.13;;;;;;;;;;4993424;28;20174;-72
2022/09/24 10:04:30;;;;;;;18.98;11.20;;;;;;;;;;4997777;28;20086;-71
2022/09/24 10:07:07;;;;;;;19.77;10.93;;;;;;;;;;5013898;28;20055;-72
2022/09/24 10:09:33;;;;;;;18.13;10.55;;;;;;;;;;5007916;28;20057;-72
2022/09/24 10:12:06;;;;;;;15.20;9.63;;;;;;;;;;5013413;28;20084;-71
2022/09/24 10:14:33;;;;;;;14.43;8.85;;;;;;;;;;5013962;28;20051;-71
2022/09/24 10:17:04;;;;;;;11.95;7.85;;;;;;;;;;5013656;28;20054;-73
2022/09/24 10:19:33;;;;;;;16.48;8.88;;;;;;;;;;5013593;28;20149;-72
2022/09/24 10:22:07;;;;;;;10.50;7.35;;;;;;;;;;5013907;28;20054;-71
2022/09/24 10:24:35;;;;;;;11.30;7.20;;;;;;;;;;5013373;28;20108;-71
2022/09/24 10:27:09;;;;;;;11.10;7.30;;;;;;;;;;5009086;28;20099;-71
2022/09/24 10:32:24;;;;;;;8.82;6.38;;;;;;;;;;4993210;28;20066;-71
2022/09/24 10:34:56;;;;;;;9.50;6.10;;;;;;;;;;4993105;28;20066;-71
2022/09/24 10:37:23;;;;;;;12.38;6.30;;;;;;;;;;4993371;28;20149;-71
2022/09/24 10:40:01;;;;;;;11.00;7.10;;;;;;;;;;5011898;28;20050;-72
2022/09/24 10:42:28;;;;;;;10.40;6.80;;;;;;;;;;5011212;28;20145;-72
2022/09/24 10:44:57;;;;;;;10.27;6.60;;;;;;;;;;5011650;28;20062;-72
2022/09/24 10:47:33;;;;;;;9.73;5.57;;;;;;;;;;5012104;28;20059;-73
2022/09/24 10:50:15;;;;;;;7.93;5.70;;;;;;;;;;5010320;28;20629;-72
2022/09/24 10:52:41;;;;;;;12.07;7.10;;;;;;;;;;5012890;28;20486;-72
2022/09/24 10:55:18;;;;;;;11.50;6.80;;;;;;;;;;4999745;28;20411;-72
2022/09/24 10:57:48;;;;;;;10.88;6.78;;;;;;;;;;4992754;28;20142;-72
2022/09/24 11:00:22;;;;;;;14.25;7.78;;;;;;;;;;5012408;28;20486;-73
2022/09/24 11:02:58;;;;;;;15.32;7.93;;;;;;;;;;5013001;28;20055;-72
2022/09/24 11:05:45;;;;;;;12.75;7.85;;;;;;;;;;5012604;28;20137;-73
2022/09/24 11:08:21;;;;;;;14.68;7.68;;;;;;;;;;4992037;28;20507;-73
2022/09/24 11:11:18;;;;;;;12.85;7.32;;;;;;;;;;5005200;28;20094;-73
2022/09/24 11:13:44;;;;;;;14.60;8.20;;;;;;;;;;5010750;28;20061;-73
2022/09/24 11:16:16;;;;;;;17.75;8.70;;;;;;;;;;5005391;28;20063;-73
2022/09/24 11:18:45;;;;;;;15.35;9.23;;;;;;;;;;5011554;28;20050;-72
2022/09/24 11:21:22;;;;;;;14.45;9.23;;;;;;;;;;5016936;28;20528;-73
2022/09/24 11:23:54;;;;;;;13.35;7.63;;;;;;;;;;5021180;28;20061;-71
2022/09/24 11:26:28;;;;;;;16.60;6.78;;;;;;;;;;5017911;28;20053;-72
2022/09/24 11:29:12;;;;;;;11.80;7.20;;;;;;;;;;5012090;28;20055;-72
2022/09/24 11:31:41;;;;;;;12.77;7.03;;;;;;;;;;5021070;28;20422;-72
2022/09/24 11:34:07;;;;;;;13.65;5.72;;;;;;;;;;5019281;28;20050;-71
2022/09/24 11:36:40;;;;;;;10.90;4.60;;;;;;;;;;5011729;28;20058;-71
2022/09/24 11:39:30;;;;;;;12.73;4.93;;;;;;;;;;5016389;28;20096;-72
2022/09/24 11:41:56;;;;;;;12.52;4.80;;;;;;;;;;5003561;28;20486;-72
2022/09/24 11:44:24;;;;;;;13.82;5.90;;;;;;;;;;5026553;28;20060;-72
2022/09/24 11:46:56;;;;;;;14.00;5.65;;;;;;;;;;5018907;28;20054;-72
2022/09/24 11:49:42;;;;;;;11.73;5.72;;;;;;;;;;5023070;28;20054;-72
2022/09/24 11:52:23;;;;;;;9.48;5.90;;;;;;;;;;5006187;28;20050;-72
2022/09/24 11:54:59;;;;;;;19.73;7.70;;;;;;;;;;5011309;28;20065;-72
2022/09/24 11:57:27;;;;;;;13.07;5.60;;;;;;;;;;4995413;28;20062;-72
2022/09/24 12:00:07;;;;;;;15.40;5.55;;;;;;;;;;4993883;28;20055;-72
2022/09/24 12:02:33;;;;;;;13.85;4.90;;;;;;;;;;4996337;28;20182;-72
2022/09/24 12:05:08;;;;;;;10.23;5.38;;;;;;;;;;4995971;28;20607;-72
2022/09/24 12:07:44;;;;;;;12.13;6.07;;;;;;;;;;4995870;28;20451;-73
2022/09/24 12:10:33;;;;;;;11.45;5.80;;;;;;;;;;4996070;28;20061;-72
2022/09/24 12:13:11;;;;;;;10.02;5.43;;;;;;;;;;5002077;28;20062;-71
2022/09/24 12:15:43;;;;;;;9.70;4.97;;;;;;;;;;5009553;28;20058;-72
2022/09/24 12:18:39;;;;;;;13.38;6.10;;;;;;;;;;5015537;28;20054;-71
2022/09/24 12:21:11;;;;;;;9.93;6.25;;;;;;;;;;5001980;28;20054;-72
2022/09/24 12:23:43;;;;;;;12.02;6.13;;;;;;;;;;4998566;28;20059;-72
2022/09/24 12:26:10;;;;;;;12.25;5.90;;;;;;;;;;5015254;28;20050;-72
2022/09/24 12:34:39;;;;;;;13.52;7.85;;;;;;;;;;5015282;28;20058;-72
2022/09/24 12:37:08;;;;;;;12.05;6.15;;;;;;;;;;5012371;28;20050;-72
2022/09/24 12:39:37;;;;;;;10.63;5.57;;;;;;;;;;5010993;28;20557;-72
2022/09/24 12:42:06;;;;;;;13.18;5.60;;;;;;;;;;5020507;28;20140;-72
2022/09/24 12:44:39;;;;;;;15.43;6.72;;;;;;;;;;5015232;28;20054;-72
2022/09/24 12:47:14;;;;;;;10.38;5.47;;;;;;;;;;5014550;28;20054;-72
2022/09/24 12:49:40;;;;;;;10.65;6.03;;;;;;;;;;5014664;28;20493;-72
2022/09/24 12:52:18;;;;;;;9.80;6.50;;;;;;;;;;5014670;28;20069;-72
2022/09/24 12:54:44;;;;;;;18.05;7.18;;;;;;;;;;5013626;28;20407;-72
2022/09/24 12:57:15;;;;;;;11.40;6.32;;;;;;;;;;5015287;28;20054;-72
2022/09/24 12:59:49;;;;;;;11.80;6.05;;;;;;;;;;5017487;28;20494;-72
2022/09/24 13:02:20;;;;;;;11.02;6.35;;;;;;;;;;5023987;28;20520;-72
2022/09/24 13:05:07;;;;;;;11.15;5.68;;;;;;;;;;5030739;28;20054;-72
2022/09/24 13:07:35;;;;;;;10.75;5.70;;;;;;;;;;5009315;28;20141;-71
2022/09/24 13:10:28;;;;;;;8.05;4.90;;;;;;;;;;5014703;28;20046;-72
2022/09/24 13:12:55;;;;;;;12.73;5.43;;;;;;;;;;5025294;28;20058;-73
2022/09/24 13:15:30;;;;;;;7.18;4.65;;;;;;;;;;5031499;28;20049;-73
2022/09/24 13:17:57;;;;;;;;;;;;;;;;;;5022197;28;20186;-73
2022/09/24 13:20:27;;;;;;;5.70;3.40;;;;;;;;;;5013952;28;43719;-72
2022/09/24 13:22:55;;;;;;;6.45;3.83;;;;;;;;;;5006467;28;20576;-72
2022/09/24 13:25:22;;;;;;;6.00;3.53;;;;;;;;;;5013159;28;20061;-72
2022/09/24 13:27:59;;;;;;;9.98;3.97;;;;;;;;;;5012935;28;20056;-72
2022/09/24 13:30:29;;;;;;;12.93;3.80;;;;;;;;;;5012826;28;20061;-72
2022/09/24 13:33:01;;;;;;;10.68;3.88;;;;;;;;;;5013688;28;20058;-72
2022/09/24 13:35:30;;;;;;;12.85;4.30;;;;;;;;;;5013304;28;20058;-72
2022/09/24 13:38:12;;;;;;;9.60;4.20;;;;;;;;;;5003586;28;20046;-73
2022/09/24 13:40:42;;;;;;;11.95;4.63;;;;;;;;;;5013866;28;20058;-73
2022/09/24 13:43:16;;;;;;;8.18;4.80;;;;;;;;;;5014135;28;20058;-72
2022/09/24 13:45:44;;;;;;;8.50;4.60;;;;;;;;;;5013843;28;20061;-72
2022/09/24 13:48:25;;;;;;;9.05;4.22;;;;;;;;;;5011966;28;20092;-73
2022/09/24 13:50:52;;;;;;;11.38;4.18;;;;;;;;;;5012570;28;20061;-72
2022/09/24 13:53:23;;;;;;;8.55;4.30;;;;;;;;;;5013623;28;20093;-72
2022/09/24 13:55:55;;;;;;;10.80;4.38;;;;;;;;;;5012437;28;20557;-72
2022/09/24 13:58:28;;;;;;;9.98;4.35;;;;;;;;;;5012843;28;20050;-72
2022/09/24 14:00:57;;;;;;;8.40;4.70;;;;;;;;;;5013556;28;20065;-71
2022/09/24 14:03:34;;;;;;;8.40;4.32;;;;;;;;;;5013260;28;20062;-72
2022/09/24 14:06:08;;;;;;;8.93;4.50;;;;;;;;;;5013763;28;20050;-71
2022/09/24 14:08:34;;;;;;;9.40;4.78;;;;;;;;;;5013504;28;20054;-72
2022/09/24 14:11:07;;;;;;;8.70;4.75;;;;;;;;;;5012861;28;20054;-72
2022/09/24 14:13:43;;;;;;;13.15;5.45;;;;;;;;;;5013399;28;20061;-72
2022/09/24 14:16:20;;;;;;;15.85;5.32;;;;;;;;;;5003518;28;20057;-72
2022/09/24 14:18:47;;;;;;;12.60;5.35;;;;;;;;;;5007963;28;20055;-71
2022/09/24 14:21:26;;;;;;;10.23;5.28;;;;;;;;;;5013647;28;20070;-72
2022/09/24 14:23:55;;;;;;;6.60;4.55;;;;;;;;;;5011191;28;20512;-71
2022/09/24 14:26:31;;;;;;;11.30;5.10;;;;;;;;;;5013057;28;20089;-72
2022/09/24 14:28:58;;;;;;;9.68;6.13;;;;;;;;;;5013736;28;20442;-72
2022/09/24 14:31:26;;;;;;;11.25;6.25;;;;;;;;;;5013163;28;20596;-72
2022/09/24 14:33:53;;;;;;;14.32;5.93;;;;;;;;;;5013152;28;20054;-72
2022/09/24 14:36:26;;;;;;;15.32;6.35;;;;;;;;;;5013183;28;20054;-72
2022/09/24 14:38:56;;;;;;;12.57;4.90;;;;;;;;;;5013012;28;20051;-71
2022/09/24 14:41:24;;;;;;;11.15;4.70;;;;;;;;;;5013585;28;20057;-72
2022/09/24 14:43:57;;;;;;;13.27;4.80;;;;;;;;;;5012259;28;20054;-72
2022/09/24 14:46:26;;;;;;;9.82;4.13;;;;;;;;;;5012902;28;20055;-72
2022/09/24 14:49:11;;;;;;;14.30;4.65;;;;;;;;;;5012486;28;20502;-72
2022/09/24 14:51:38;;;;;;;9.67;4.60;;;;;;;;;;5020875;28;20066;-73
2022/09/24 14:54:25;;;;;;;10.90;3.40;;;;;;;;;;5016918;28;20059;-72
2022/09/24 14:56:51;;;;;;;9.35;3.05;;;;;;;;;;5012531;28;20061;-74
2022/09/24 14:59:36;;;;;;;8.70;2.33;;;;;;;;;;5013199;28;20043;-73